金門航空站 - ATIS

METAR RCBS 201200Z 18005KT 4800 BR FEW007 BKN014 BKN070 19/18 Q1013 NOSIG RMK A2992(V)=

站台狀態:Online
最後更新:2019-03-21 03:45:01